Impacts METAR Board
IDs:

KPDX - Portland Intl Arpt, OR, US

Updated at: 2000 UTC 16 Aug 2018
Potential Impact None Slight Moderate High
Time 16/08Z 16/09Z 16/10Z 16/11Z 16/12Z 16/13Z 16/14Z 16/15Z 16/16Z 16/17Z 16/18Z 16/19Z 16/20Z
Temp66 64 63 62 62 62 62 63 63 65 67 69 72
Dewpt58 57 57 57 57 57 56 56 55 56 55 55 55
Altim29.96 29.98 29.99 30.01 30.02 30.03 30.05 30.07 30.08 30.08 30.08 30.07 30.07
VIS9 9 9 10 10 10 10 10 10 10 10 10 10
CIG50 50 50 50 11 11 12 13 15 16 19 200 100
CoverBKNBKNBKNBKNOVCOVCOVCOVCOVCOVCBKNBKNBKN
FltCatVFRVFRVFRVFRMVFRMVFRMVFRMVFRMVFRMVFRMVFRVFRVFR
WX--------------------------
WDir3303303203603303203300320003100
WSpd5 5 6 4 4 4 5 4 6 4 5 7 3
WGst-- -- -- -- -- -- -- -- -- -- -- -- --
Raw hourly METARs
KPDX 160753Z 33005KT 9SM BKN050 19/14 A2996 RMK AO2 SLP144 FU BKN050 T01890144 403170178
KPDX 160853Z 33005KT 9SM BKN050 BKN140 18/14 A2998 RMK AO2 SLP149 FU BKN050 T01780139 51014
KPDX 160953Z 32006KT 9SM BKN050 17/14 A2999 RMK AO2 SLP154 FU BKN050 T01720139 $
KPDX 161053Z 36004KT 10SM BKN050 BKN130 17/14 A3001 RMK AO2 SLP159 FU BKN050 T01670139 $
KPDX 161153Z 33004KT 10SM BKN011 OVC050 17/14 A3002 RMK AO2 SLP164 FU OVC050 T01670139 10211 20161 52016 $
KPDX 161253Z 32004KT 10SM OVC011 17/14 A3003 RMK AO2 SLP168 T01670139 $
KPDX 161353Z AUTO 33005KT 10SM OVC012 17/13 A3005 RMK AO2 SLP174 T01670133
KPDX 161453Z VRB04KT 10SM OVC013 17/13 A3007 RMK AO2 SLP181 T01720133 53016
KPDX 161600Z 32006KT 10SM OVC015 17/13 A3008 RMK AO2 T01720128
KPDX 161653Z VRB04KT 10SM OVC016 18/13 A3008 RMK AO2 SLP184 T01830133
KPDX 161753Z VRB05KT 10SM BKN019 BKN200 19/13 A3008 RMK AO2 SLP184 T01940128 10194 20167 50003
KPDX 161853Z 31007KT 10SM FEW025 FEW100 BKN200 21/13 A3007 RMK AO2 SLP182 FU FEW100 T02060128
KPDX 161953Z VRB03KT 10SM BKN100 BKN150 BKN210 22/13 A3007 RMK AO2 SLP180 FU BKN100 T02220128



Page loaded:  20:18 UTC  |   01:18 PM Pacific  |   02:18 PM Mountain  |   03:18 PM Central  |   04:18 PM Eastern

 

ADVISORIES

FORECASTS

FORECASTS

OBSERVATIONS

USER TOOLS

ABOUT US